ADDS METAR Data INFO
IDs: Format: Raw Decoded Include TAF

Data at: 1503 UTC 11 Dec 2017

KPXE 111455Z AUTO 29007KT 10SM CLR 07/00 A3023 RMK AO2 T00721002
KPXE 111435Z AUTO 28005KT 10SM CLR 06/00 A3023 RMK AO2 T00601001
KPXE 111415Z AUTO 27005KT 10SM CLR 05/M01 A3024 RMK AO2 T00461008
KPXE 111355Z AUTO 27006KT 10SM CLR 04/M01 A3024 RMK AO2 T00351013
KPXE 111335Z AUTO 26006KT 10SM CLR 03/M02 A3023 RMK AO2 T00261019
KPXE 111315Z AUTO 25004KT 10SM CLR 01/M02 A3023 RMK AO2 T00121020
KPXE 111255Z AUTO 24004KT 10SM CLR 00/M03 A3023 RMK AO2 T00001026
KPXE 111235Z AUTO 24005KT 10SM CLR 00/M03 A3023 RMK AO2 T00031027
KPXE 111215Z AUTO 24004KT 10SM CLR M01/M03 A3023 RMK AO2 T10071030
KPXE 111155Z AUTO 27004KT 10SM CLR 00/M03 A3023 RMK AO2 T00011029 10016 21022
KPXE 111135Z AUTO 26003KT 10SM CLR 00/M03 A3023 RMK AO2 T10021029
KPXE 111115Z AUTO 24004KT 10SM CLR 00/M03 A3023 RMK AO2 T10021029
KPXE 111055Z AUTO 22005KT 10SM CLR M01/M03 A3023 RMK AO2 T10141031
KPXE 111035Z AUTO 22005KT 10SM CLR 00/M03 A3023 RMK AO2 T10021032
KPXE 111015Z AUTO 27004KT 10SM CLR 00/M03 A3022 RMK AO2 T00021029
KPXE 110955Z AUTO 24004KT 10SM CLR M01/M03 A3023 RMK AO2 T10121034
KPXE 110935Z AUTO 25004KT 10SM CLR 00/M03 A3023 RMK AO2 T10011030
KPXE 110915Z AUTO 25003KT 10SM CLR M01/M03 A3023 RMK AO2 T10061032
KPXE 110855Z AUTO 26003KT 10SM CLR 00/M03 A3024 RMK AO2 T00021031
KPXE 110835Z AUTO 25004KT 10SM CLR M02/M03 A3025 RMK AO2 T10171033
KPXE 110815Z AUTO 25003KT 10SM CLR M02/M03 A3025 RMK AO2 T10181032
KPXE 110755Z AUTO 23003KT 10SM CLR M02/M03 A3026 RMK AO2 T10181030
KPXE 110735Z AUTO 23003KT 10SM CLR M01/M03 A3027 RMK AO2 T10081030
KPXE 110715Z AUTO 23005KT 10SM CLR M01/M03 A3028 RMK AO2 T10131030
KPXE 110655Z AUTO 23003KT 10SM CLR M01/M03 A3028 RMK AO2 T10121032
KPXE 110635Z AUTO 27003KT 10SM CLR 01/M03 A3027 RMK AO2 T00101031
KPXE 110615Z AUTO 28003KT 10SM CLR 01/M03 A3026 RMK AO2 T00121030
KPXE 110555Z AUTO 29003KT 10SM CLR 01/M03 A3027 RMK AO2 T00141030 10052 20014
KPXE 110535Z AUTO 00000KT 10SM CLR 02/M03 A3027 RMK AO2 T00221033
KPXE 110515Z AUTO 28004KT 10SM CLR 02/M03 A3027 RMK AO2 T00241032
KPXE 110455Z AUTO 28004KT 10SM CLR 02/M03 A3028 RMK AO2 T00241032
KPXE 110435Z AUTO 28005KT 10SM CLR 03/M03 A3029 RMK AO2 T00271032
KPXE 110415Z AUTO 28005KT 10SM CLR 03/M03 A3029 RMK AO2 T00301031
KPXE 110355Z AUTO 27005KT 10SM CLR 03/M03 A3029 RMK AO2 T00331031
KPXE 110335Z AUTO 28005KT 10SM CLR 04/M03 A3029 RMK AO2 T00371031
KPXE 110315Z AUTO 27007KT 10SM CLR 04/M03 A3028 RMK AO2 T00361031
KPXE 110255Z AUTO 25007KT 10SM CLR 04/M03 A3028 RMK AO2 T00361031
KPXE 110235Z AUTO 26006KT 10SM CLR 03/M03 A3027 RMK AO2 T00341032
KPXE 110215Z AUTO 26004KT 10SM CLR 04/M03 A3027 RMK AO2 T00361033
KPXE 110155Z AUTO 27003KT 10SM CLR 03/M03 A3027 RMK AO2 T00331033
KPXE 110135Z AUTO 23004KT 10SM CLR 03/M03 A3027 RMK AO2 T00331032
KPXE 110115Z AUTO 26005KT 10SM CLR 04/M03 A3027 RMK AO2 T00411034
KPXE 110055Z AUTO 25005KT 10SM CLR 03/M03 A3027 RMK AO2 T00311028
KPXE 110035Z AUTO 25004KT 10SM CLR 04/M03 A3026 RMK AO2 T00411032
KPXE 110015Z AUTO 24004KT 10SM CLR 05/M03 A3026 RMK AO2 T00481034
KPXE 102355Z AUTO 24004KT 10SM CLR 03/M02 A3025 RMK AO2 T00351022 10096 20032 400961022
KPXE 102335Z AUTO 23004KT 10SM CLR 04/M02 A3024 RMK AO2 T00411024
KPXE 102315Z AUTO 24004KT 10SM CLR 07/M04 A3024 RMK AO2 T00651042
KPXE 102255Z AUTO 25004KT 10SM CLR 07/M04 A3025 RMK AO2 T00691044
KPXE 102235Z AUTO 27004KT 10SM CLR 08/M05 A3024 RMK AO2 T00781049
KPXE 102215Z AUTO 27005KT 10SM CLR 09/M05 A3025 RMK AO2 T00851047
KPXE 102155Z AUTO 28006KT 10SM CLR 09/M05 A3025 RMK AO2 T00911051
KPXE 102135Z AUTO 28006KT 10SM CLR 09/M05 A3024 RMK AO2 T00931053
KPXE 102115Z AUTO 28006KT 10SM CLR 09/M05 A3024 RMK AO2 T00951047
KPXE 102055Z AUTO 27008KT 10SM CLR 09/M05 A3024 RMK AO2 T00951046
KPXE 102035Z AUTO 28005KT 10SM CLR 09/M05 A3024 RMK AO2 T00921047
KPXE 102015Z AUTO 31008KT 10SM CLR 09/M05 A3024 RMK AO2 T00911046
KPXE 101955Z AUTO 29008KT 10SM CLR 09/M05 A3025 RMK AO2 T00881051
KPXE 101935Z AUTO 31009KT 10SM CLR 08/M05 A3025 RMK AO2 T00851046
KPXE 101915Z AUTO 28008KT 10SM CLR 08/M04 A3027 RMK AO2 T00841040
KPXE 101855Z AUTO 28008G14KT 10SM CLR 08/M04 A3027 RMK AO2 T00791038
KPXE 101835Z AUTO 30010KT 10SM CLR 08/M03 A3027 RMK AO2 T00781031
KPXE 101815Z AUTO 28007KT 260V320 10SM CLR 08/M03 A3028 RMK AO2 T00771027
KPXE 101755Z AUTO 31009KT 10SM CLR 07/M03 A3028 RMK AO2 T00721029 10073 21022
KPXE 101735Z AUTO 30004KT 10SM CLR 06/M03 A3030 RMK AO2 T00621033
KPXE 101715Z AUTO 31005KT 10SM CLR 06/M03 A3030 RMK AO2 T00581030
KPXE 101655Z AUTO 28006KT 10SM CLR 05/M04 A3031 RMK AO2 T00521035
KPXE 101635Z AUTO 28007KT 10SM CLR 05/M03 A3032 RMK AO2 T00491034
KPXE 101615Z AUTO 31007KT 10SM CLR 04/M04 A3033 RMK AO2 T00451038
KPXE 101555Z AUTO 32008KT 10SM CLR 04/M04 A3032 RMK AO2 T00401035
KPXE 101535Z AUTO 34006KT 10SM CLR 04/M04 A3032 RMK AO2 T00351037
KPXE 101515Z AUTO 31009KT 10SM CLR 03/M04 A3033 RMK AO2 T00281044
KPXE 101455Z AUTO 32005KT 10SM CLR 02/M04 A3033 RMK AO2 T00231037
KPXE 101435Z AUTO 31006KT 10SM CLR 02/M04 A3032 RMK AO2 T00161037
KPXE 101415Z AUTO 29008KT 10SM CLR 01/M03 A3032 RMK AO2 T00081034
KPXE 101355Z AUTO 29005KT 10SM CLR 00/M03 A3032 RMK AO2 T10011030
KPXE 101335Z AUTO 30006KT 10SM CLR M01/M03 A3031 RMK AO2 T10081033
KPXE 101315Z AUTO 28003KT 10SM CLR M01/M03 A3031 RMK AO2 T10131034
KPXE 101255Z AUTO 28003KT 10SM CLR M02/M04 A3030 RMK AO2 T10181037
KPXE 101235Z AUTO 26004KT 10SM CLR M02/M04 A3030 RMK AO2 T10221038
KPXE 101215Z AUTO 28004KT 10SM CLR M02/M04 A3030 RMK AO2 T10201037
KPXE 101155Z AUTO 30004KT 10SM CLR M02/M04 A3029 RMK AO2 T10181036 10002 21018 70001
KPXE 101135Z AUTO 29005KT 10SM CLR M02/M03 A3029 RMK AO2 T10171035
KPXE 101115Z AUTO 30005KT 10SM CLR M02/M03 A3029 RMK AO2 T10161032
KPXE 101055Z AUTO 29005KT 10SM CLR M02/M03 A3028 RMK AO2 T10151031
KPXE 101035Z AUTO 28004KT 10SM CLR M02/M03 A3027 RMK AO2 T10151031
KPXE 101015Z AUTO 27004KT 10SM CLR M02/M03 A3026 RMK AO2 T10151032
KPXE 100955Z AUTO 27004KT 10SM CLR M01/M03 A3025 RMK AO2 T10131030
KPXE 100935Z AUTO 28004KT 10SM CLR M01/M03 A3025 RMK AO2 T10111028
KPXE 100915Z AUTO 29005KT 10SM CLR M01/M03 A3024 RMK AO2 T10081026
KPXE 100855Z AUTO 29006KT 10SM CLR M01/M03 A3024 RMK AO2 T10061026
KPXE 100835Z AUTO 30004KT 10SM CLR M01/M02 A3023 RMK AO2 T10081025
KPXE 100815Z AUTO 30005KT 10SM CLR M01/M02 A3022 RMK AO2 T10091023
KPXE 100755Z AUTO 31005KT 10SM CLR M01/M02 A3022 RMK AO2 T10121025
KPXE 100735Z AUTO 28003KT 10SM CLR M01/M02 A3021 RMK AO2 T10111025
KPXE 100715Z AUTO 00000KT 10SM CLR M01/M03 A3021 RMK AO2 T10151027
KPXE 100655Z AUTO 00000KT 10SM CLR M01/M02 A3020 RMK AO2 T10081025
KPXE 100635Z AUTO 28003KT 10SM CLR M01/M02 A3019 RMK AO2 T10061024
KPXE 100615Z AUTO 25004KT 10SM CLR 00/M03 A3019 RMK AO2 T10031026
KPXE 100555Z AUTO 27003KT 10SM CLR 00/M03 A3018 RMK AO2 T00031025 10037 20003
KPXE 100535Z AUTO 27004KT 10SM CLR 00/M02 A3018 RMK AO2 T00051024
KPXE 100515Z AUTO 27004KT 10SM CLR 01/M03 A3018 RMK AO2 T00091025
KPXE 100455Z AUTO 29005KT 10SM CLR 01/M03 A3017 RMK AO2 T00111026
KPXE 100435Z AUTO 29006KT 10SM CLR 01/M03 A3017 RMK AO2 T00121027
KPXE 100410Z AUTO 29007KT 10SM CLR 01/M03 A3017 RMK AO2 T00101031
KPXE 100355Z AUTO 28005KT 10SM CLR 01/M03 A3016 RMK AO2 T00091033
KPXE 100335Z AUTO 29006KT 10SM CLR 01/M04 A3016 RMK AO2 T00081036
KPXE 100315Z AUTO 28004KT 10SM CLR 01/M04 A3015 RMK AO2 T00091036